createdAt,value
2022-10-04T00:03:31.480Z,5.30
2022-10-04T00:08:08.263Z,5.20
2022-10-04T00:12:21.771Z,5.10
2022-10-04T00:16:47.048Z,5.00
2022-10-04T00:21:05.270Z,5.00
2022-10-04T00:25:34.991Z,5.00
2022-10-04T00:29:39.950Z,4.90
2022-10-04T00:33:44.922Z,4.90
2022-10-04T00:38:27.434Z,4.90
2022-10-04T00:42:47.554Z,4.90
2022-10-04T00:47:18.296Z,4.80
2022-10-04T00:51:29.351Z,4.80
2022-10-04T00:55:39.535Z,4.70
2022-10-04T01:00:13.160Z,4.70
2022-10-04T01:04:28.646Z,4.70
2022-10-04T01:08:54.574Z,4.60
2022-10-04T01:13:05.429Z,4.60
2022-10-04T01:17:11.261Z,4.60
2022-10-04T01:21:44.959Z,4.60
2022-10-04T01:25:52.134Z,4.60
2022-10-04T01:29:55.497Z,4.60
2022-10-04T01:33:59.127Z,4.60
2022-10-04T01:38:03.454Z,4.60
2022-10-04T01:42:14.512Z,4.60
2022-10-04T01:46:30.571Z,4.50
2022-10-04T01:50:39.242Z,4.40
2022-10-04T01:54:46.157Z,4.40
2022-10-04T01:59:16.771Z,4.30
2022-10-04T02:03:27.963Z,4.30
2022-10-04T02:07:56.366Z,4.30
2022-10-04T02:12:00.158Z,4.30
2022-10-04T02:16:38.698Z,4.30
2022-10-04T02:20:44.912Z,4.40
2022-10-04T02:24:50.718Z,4.40
2022-10-04T02:29:24.408Z,4.40
2022-10-04T02:33:27.658Z,4.30
2022-10-04T02:37:32.472Z,4.30
2022-10-04T02:42:11.878Z,4.20
2022-10-04T02:46:19.282Z,4.20
2022-10-04T02:50:30.835Z,4.20
2022-10-04T02:54:42.117Z,4.20
2022-10-04T02:58:45.858Z,4.20
2022-10-04T03:03:23.059Z,4.20
2022-10-04T03:08:00.174Z,4.10
2022-10-04T03:12:05.892Z,4.00
2022-10-04T03:16:41.176Z,4.00
2022-10-04T03:20:45.615Z,4.00
2022-10-04T03:24:53.615Z,4.00
2022-10-04T03:28:58.926Z,4.00
2022-10-04T03:33:33.479Z,4.00
2022-10-04T03:38:09.300Z,4.10
2022-10-04T03:42:19.908Z,4.10
2022-10-04T03:46:53.734Z,4.10
2022-10-04T03:51:29.430Z,4.10
2022-10-04T03:56:04.652Z,4.00
2022-10-04T04:00:41.043Z,3.90
2022-10-04T04:05:18.061Z,3.90
2022-10-04T04:09:55.734Z,3.80
2022-10-04T04:14:49.173Z,3.80
2022-10-04T04:19:16.682Z,3.90
2022-10-04T04:23:50.454Z,3.90
2022-10-04T04:28:32.616Z,3.90
2022-10-04T04:33:06.870Z,4.00
2022-10-04T04:37:38.551Z,4.20
2022-10-04T04:42:18.290Z,4.30
2022-10-04T04:47:00.423Z,4.30
2022-10-04T04:51:32.640Z,4.40
2022-10-04T04:56:10.407Z,4.50
2022-10-04T05:00:42.166Z,4.50
2022-10-04T05:05:22.397Z,4.60
2022-10-04T05:09:56.285Z,4.70
2022-10-04T05:14:33.282Z,4.80
2022-10-04T05:19:14.133Z,4.90
2022-10-04T05:23:44.736Z,5.00
2022-10-04T05:28:22.909Z,5.00
2022-10-04T05:33:01.433Z,5.00
2022-10-04T05:37:42.843Z,5.10
2022-10-04T05:42:13.659Z,5.20
2022-10-04T05:46:46.039Z,5.30
2022-10-04T05:51:19.665Z,5.40
2022-10-04T05:56:05.431Z,5.50
2022-10-04T06:00:37.599Z,5.60
2022-10-04T06:05:08.094Z,5.70
2022-10-04T06:09:48.116Z,5.90
2022-10-04T06:14:33.319Z,6.00
2022-10-04T06:19:15.378Z,6.20
2022-10-04T06:23:49.846Z,6.30
2022-10-04T06:28:25.749Z,6.40
2022-10-04T06:33:10.029Z,6.60
2022-10-04T06:37:52.800Z,6.90
2022-10-04T06:42:49.519Z,7.30
2022-10-04T06:47:38.626Z,7.50
2022-10-04T06:57:19.067Z,8.00
2022-10-04T07:01:35.650Z,8.30
2022-10-04T07:06:10.528Z,8.50
2022-10-04T07:10:49.868Z,8.70
2022-10-04T07:15:24.153Z,8.90
2022-10-04T07:19:35.147Z,9.10
2022-10-04T07:23:45.677Z,9.30
2022-10-04T07:28:14.981Z,9.60
2022-10-04T07:32:28.197Z,9.90
2022-10-04T07:37:03.466Z,10.20
2022-10-04T07:41:28.087Z,10.50
2022-10-04T07:50:59.427Z,11.10
2022-10-04T07:55:27.857Z,11.30
2022-10-04T07:59:46.905Z,11.40
2022-10-04T08:04:31.484Z,11.60
2022-10-04T08:09:02.368Z,11.90
2022-10-04T08:13:35.221Z,12.30
2022-10-04T08:18:11.583Z,12.70
2022-10-04T08:22:51.593Z,13.10
2022-10-04T08:27:33.897Z,13.30
2022-10-04T08:32:07.550Z,13.50
2022-10-04T08:36:41.149Z,13.70
2022-10-04T08:41:28.542Z,14.00
2022-10-04T08:51:08.226Z,14.90
2022-10-04T08:56:11.471Z,15.30
2022-10-04T09:05:42.917Z,15.70
2022-10-04T09:10:29.615Z,15.80
2022-10-04T09:15:27.677Z,16.00
2022-10-04T09:20:36.627Z,16.30
2022-10-04T09:25:10.481Z,16.70
2022-10-04T09:30:01.798Z,17.00
2022-10-04T09:34:37.225Z,17.20
2022-10-04T09:39:30.049Z,17.60
2022-10-04T09:44:10.808Z,17.90
2022-10-04T09:54:06.150Z,18.30
2022-10-04T09:58:49.077Z,18.40
2022-10-04T10:03:30.631Z,18.40
2022-10-04T10:08:01.293Z,18.70
2022-10-04T10:12:59.541Z,18.70
2022-10-04T10:17:42.880Z,18.70
2022-10-04T10:22:18.633Z,18.70
2022-10-04T10:26:52.698Z,18.50
2022-10-04T10:31:43.554Z,18.70
2022-10-04T10:36:09.330Z,18.70
2022-10-04T10:40:34.240Z,18.70
2022-10-04T10:45:15.756Z,18.80
2022-10-04T10:49:48.086Z,18.90
2022-10-04T10:54:30.711Z,19.10
2022-10-04T10:59:21.100Z,19.20
2022-10-04T11:04:03.769Z,19.20
2022-10-04T11:08:39.009Z,19.40
2022-10-04T11:13:21.425Z,19.90
2022-10-04T11:17:59.633Z,20.10
2022-10-04T11:22:45.442Z,20.10
2022-10-04T11:27:15.978Z,20.30
2022-10-04T11:32:05.838Z,20.50
2022-10-04T11:36:52.048Z,20.50
2022-10-04T11:41:25.302Z,20.40
2022-10-04T11:46:01.866Z,20.30
2022-10-04T11:50:49.355Z,20.20
2022-10-04T11:55:44.303Z,20.00
2022-10-04T12:00:22.964Z,20.00
2022-10-04T12:05:03.300Z,20.00
2022-10-04T12:09:43.357Z,19.80
2022-10-04T12:14:26.750Z,19.60
2022-10-04T12:19:15.571Z,19.40
2022-10-04T12:23:50.253Z,19.20
2022-10-04T12:28:28.691Z,19.10
2022-10-04T12:33:10.595Z,19.00
2022-10-04T12:37:41.694Z,18.90
2022-10-04T12:42:16.867Z,18.80
2022-10-04T12:46:58.285Z,18.90
2022-10-04T12:51:19.940Z,19.00
2022-10-04T12:56:03.213Z,18.80
2022-10-04T13:00:36.065Z,18.70
2022-10-04T13:05:09.644Z,18.60
2022-10-04T13:10:19.352Z,18.50
2022-10-04T13:14:30.571Z,18.30
2022-10-04T13:19:05.970Z,18.20
2022-10-04T13:23:41.453Z,18.10
2022-10-04T13:28:15.177Z,18.10
2022-10-04T13:32:45.801Z,18.00
2022-10-04T13:37:26.546Z,18.00
2022-10-04T13:42:21.389Z,18.00
2022-10-04T13:47:13.885Z,18.00
2022-10-04T13:52:14.315Z,18.00
2022-10-04T13:56:43.215Z,18.10
2022-10-04T14:01:30.152Z,18.20
2022-10-04T14:06:12.014Z,18.40
2022-10-04T14:10:54.628Z,18.60
2022-10-04T14:15:30.970Z,18.80
2022-10-04T14:20:24.518Z,18.90
2022-10-04T14:25:15.430Z,19.00
2022-10-04T14:29:51.780Z,19.10
2022-10-04T14:34:34.233Z,19.10
2022-10-04T14:39:07.622Z,19.20
2022-10-04T14:43:50.157Z,19.40
2022-10-04T14:53:22.653Z,19.30
2022-10-04T14:57:57.325Z,19.10
2022-10-04T15:02:38.179Z,19.10
2022-10-04T15:07:04.409Z,19.00
2022-10-04T15:11:42.091Z,18.90
2022-10-04T15:16:19.083Z,18.70
2022-10-04T15:20:25.771Z,18.70
2022-10-04T15:24:59.657Z,18.50
2022-10-04T15:29:44.931Z,18.30
2022-10-04T15:34:15.432Z,18.20
2022-10-04T15:38:53.875Z,18.10
2022-10-04T15:43:31.104Z,18.00
2022-10-04T15:48:13.092Z,17.80
2022-10-04T15:57:43.666Z,17.30
2022-10-04T16:02:23.361Z,17.10
2022-10-04T16:06:32.385Z,16.90
2022-10-04T16:11:17.931Z,16.70
2022-10-04T16:21:07.362Z,16.20
2022-10-04T16:25:40.271Z,16.00
2022-10-04T16:30:21.671Z,15.80
2022-10-04T16:34:54.447Z,15.60
2022-10-04T16:39:54.081Z,15.40
2022-10-04T16:44:34.399Z,15.00
2022-10-04T16:48:56.167Z,14.80
2022-10-04T16:53:32.220Z,14.40
2022-10-04T17:03:19.003Z,13.40
2022-10-04T17:08:07.281Z,13.10
2022-10-04T17:12:38.819Z,12.70
2022-10-04T17:17:19.586Z,12.40
2022-10-04T17:21:54.722Z,12.10
2022-10-04T17:26:28.490Z,11.90
2022-10-04T17:31:03.390Z,11.60
2022-10-04T17:35:49.014Z,11.40
2022-10-04T17:40:27.637Z,11.20
2022-10-04T17:45:08.616Z,11.10
2022-10-04T17:50:11.400Z,11.00
2022-10-04T17:54:42.210Z,10.80
2022-10-04T17:59:00.685Z,10.70
2022-10-04T18:03:37.330Z,10.60
2022-10-04T18:08:14.232Z,10.50
2022-10-04T18:12:48.115Z,10.40
2022-10-04T18:16:57.523Z,10.30
2022-10-04T18:21:29.259Z,10.10
2022-10-04T18:26:04.478Z,10.10
2022-10-04T18:30:52.536Z,9.90
2022-10-04T18:35:25.270Z,9.80
2022-10-04T18:40:04.076Z,9.70
2022-10-04T18:44:44.086Z,9.60
2022-10-04T18:49:14.792Z,9.50
2022-10-04T18:53:45.851Z,9.40
2022-10-04T19:03:16.537Z,9.20
2022-10-04T19:07:44.629Z,9.10
2022-10-04T19:12:22.162Z,9.00
2022-10-04T19:16:57.177Z,8.90
2022-10-04T19:21:35.180Z,8.80
2022-10-04T19:26:30.997Z,8.70
2022-10-04T19:31:21.942Z,8.70
2022-10-04T19:35:58.875Z,8.60
2022-10-04T19:40:35.119Z,8.60
2022-10-04T19:45:16.639Z,8.50
2022-10-04T19:49:46.222Z,8.50
2022-10-04T19:54:16.875Z,8.50
2022-10-04T19:59:01.361Z,8.50
2022-10-04T20:03:29.961Z,8.50
2022-10-04T20:08:10.371Z,8.40
2022-10-04T20:12:41.993Z,8.40
2022-10-04T20:17:30.924Z,8.30
2022-10-04T20:21:53.284Z,8.30
2022-10-04T20:26:54.147Z,8.30
2022-10-04T20:31:10.682Z,8.20
2022-10-04T20:35:51.040Z,8.20
2022-10-04T20:40:42.970Z,8.20
2022-10-04T20:45:23.085Z,8.20
2022-10-04T20:49:45.656Z,8.10
2022-10-04T20:54:20.218Z,8.00
2022-10-04T20:58:59.677Z,8.00
2022-10-04T21:03:33.396Z,7.90
2022-10-04T21:07:38.069Z,7.70
2022-10-04T21:11:48.411Z,7.70
2022-10-04T21:16:28.552Z,7.70
2022-10-04T21:20:46.638Z,7.70
2022-10-04T21:25:41.463Z,7.70
2022-10-04T21:29:46.844Z,7.70
2022-10-04T21:34:48.300Z,7.60
2022-10-04T21:38:44.039Z,7.60
2022-10-04T21:43:18.117Z,7.50
2022-10-04T21:47:22.786Z,7.50
2022-10-04T21:51:26.000Z,7.40
2022-10-04T21:55:29.405Z,7.40
2022-10-04T21:59:32.615Z,7.40
2022-10-04T22:03:37.218Z,7.40
2022-10-04T22:07:40.486Z,7.30
2022-10-04T22:11:43.893Z,7.30
2022-10-04T22:15:47.168Z,7.30
2022-10-04T22:20:21.143Z,7.30
2022-10-04T22:24:25.798Z,7.20
2022-10-04T22:28:31.229Z,7.20
2022-10-04T22:33:04.758Z,7.10
2022-10-04T22:37:11.849Z,7.10
2022-10-04T22:41:19.058Z,7.10
2022-10-04T22:45:53.010Z,7.00
2022-10-04T22:50:31.877Z,6.90
2022-10-04T22:54:36.787Z,6.80
2022-10-04T22:58:41.784Z,6.80
2022-10-04T23:03:19.758Z,6.80
2022-10-04T23:07:23.726Z,6.80
2022-10-04T23:11:57.635Z,6.80
2022-10-04T23:16:12.317Z,6.70
2022-10-04T23:20:37.020Z,6.70
2022-10-04T23:24:40.261Z,6.70
2022-10-04T23:29:19.547Z,6.60
2022-10-04T23:33:24.983Z,6.60
2022-10-04T23:37:32.933Z,6.50
2022-10-04T23:41:36.126Z,6.50
2022-10-04T23:45:47.092Z,6.50
2022-10-04T23:50:22.411Z,6.40
2022-10-04T23:54:25.616Z,6.30
2022-10-04T23:58:33.079Z,6.30
